createdAt,value
2022-08-31T00:00:54.771Z,0
2022-08-31T00:01:54.717Z,0
2022-08-31T00:02:54.708Z,0
2022-08-31T00:03:54.699Z,0
2022-08-31T00:04:54.686Z,0
2022-08-31T00:05:54.682Z,0
2022-08-31T00:06:54.667Z,0
2022-08-31T00:07:54.660Z,0
2022-08-31T00:08:54.669Z,0
2022-08-31T00:09:54.631Z,0
2022-08-31T00:10:54.640Z,0
2022-08-31T00:11:54.621Z,0
2022-08-31T00:12:54.602Z,0
2022-08-31T00:13:54.612Z,0
2022-08-31T00:14:54.582Z,0
2022-08-31T00:15:54.567Z,0
2022-08-31T00:16:54.560Z,0
2022-08-31T00:17:54.548Z,0
2022-08-31T00:18:54.540Z,0
2022-08-31T00:19:54.535Z,0
2022-08-31T00:20:54.527Z,0
2022-08-31T00:21:54.505Z,0
2022-08-31T00:22:54.497Z,0
2022-08-31T00:23:54.486Z,0
2022-08-31T00:24:54.469Z,0
2022-08-31T00:25:54.488Z,0
2022-08-31T00:26:54.456Z,0
2022-08-31T00:27:54.440Z,0
2022-08-31T00:28:54.441Z,0
2022-08-31T00:29:54.416Z,0
2022-08-31T00:30:54.407Z,0
2022-08-31T00:31:54.418Z,0
2022-08-31T00:32:54.404Z,0
2022-08-31T00:33:54.376Z,0
2022-08-31T00:34:54.365Z,0
2022-08-31T00:35:54.352Z,0
2022-08-31T00:36:54.356Z,0
2022-08-31T00:37:54.331Z,0
2022-08-31T00:38:54.323Z,0
2022-08-31T00:39:54.313Z,0
2022-08-31T00:40:54.375Z,0
2022-08-31T00:41:54.285Z,0
2022-08-31T00:42:54.284Z,0
2022-08-31T00:43:54.267Z,0
2022-08-31T00:44:54.259Z,0
2022-08-31T00:45:54.260Z,0
2022-08-31T00:46:54.250Z,0
2022-08-31T00:47:54.221Z,0
2022-08-31T00:48:54.211Z,0
2022-08-31T00:49:54.204Z,0
2022-08-31T00:50:54.195Z,0
2022-08-31T00:51:54.181Z,0
2022-08-31T00:52:54.184Z,0
2022-08-31T00:53:54.161Z,0
2022-08-31T00:54:54.153Z,0
2022-08-31T00:55:54.149Z,0
2022-08-31T00:56:54.129Z,0
2022-08-31T00:57:54.119Z,0
2022-08-31T00:58:54.129Z,0
2022-08-31T00:59:54.090Z,0
2022-08-31T01:00:54.087Z,0
2022-08-31T01:01:54.070Z,0
2022-08-31T01:02:54.068Z,0
2022-08-31T01:03:54.049Z,0
2022-08-31T01:04:54.052Z,0
2022-08-31T01:05:54.044Z,0
2022-08-31T01:06:54.025Z,0
2022-08-31T01:07:54.018Z,0
2022-08-31T01:08:53.998Z,0
2022-08-31T01:09:54.000Z,0
2022-08-31T01:10:53.983Z,0
2022-08-31T01:11:53.969Z,0
2022-08-31T01:12:53.968Z,0
2022-08-31T01:13:53.948Z,0
2022-08-31T01:14:53.928Z,0
2022-08-31T01:15:53.925Z,0
2022-08-31T01:16:53.914Z,0
2022-08-31T01:17:53.909Z,0
2022-08-31T01:18:53.893Z,0
2022-08-31T01:19:53.904Z,0
2022-08-31T01:20:53.865Z,0
2022-08-31T01:21:53.858Z,0
2022-08-31T01:22:53.866Z,0
2022-08-31T01:23:53.834Z,0
2022-08-31T01:24:53.825Z,0
2022-08-31T01:25:53.818Z,0
2022-08-31T01:26:53.803Z,0
2022-08-31T01:27:53.812Z,0
2022-08-31T01:28:53.779Z,0
2022-08-31T01:29:53.770Z,0
2022-08-31T01:30:53.765Z,0
2022-08-31T01:31:53.746Z,0
2022-08-31T01:32:53.735Z,0
2022-08-31T01:33:53.740Z,0
2022-08-31T01:34:53.715Z,0
2022-08-31T01:35:53.711Z,0
2022-08-31T01:36:53.709Z,0
2022-08-31T01:37:53.686Z,0
2022-08-31T01:38:53.680Z,0
2022-08-31T01:39:53.675Z,0
2022-08-31T01:40:53.666Z,0
2022-08-31T01:41:53.669Z,0
2022-08-31T01:42:53.629Z,0
2022-08-31T01:43:53.620Z,0
2022-08-31T01:44:53.633Z,0
2022-08-31T01:45:53.598Z,0
2022-08-31T01:46:53.585Z,0
2022-08-31T01:47:53.589Z,0
2022-08-31T01:48:53.599Z,0
2022-08-31T01:49:53.553Z,0
2022-08-31T01:50:53.549Z,0
2022-08-31T01:51:53.543Z,0
2022-08-31T01:52:53.527Z,0
2022-08-31T01:53:53.520Z,0
2022-08-31T01:54:53.519Z,0
2022-08-31T01:55:53.500Z,0
2022-08-31T01:56:53.481Z,0
2022-08-31T01:57:53.478Z,0
2022-08-31T01:58:53.473Z,0
2022-08-31T01:59:53.451Z,0
2022-08-31T02:00:53.448Z,0
2022-08-31T02:01:53.437Z,0
2022-08-31T02:02:53.410Z,0
2022-08-31T02:03:53.406Z,0
2022-08-31T02:04:53.433Z,0
2022-08-31T02:06:53.372Z,0
2022-08-31T02:07:53.369Z,0
2022-08-31T02:08:53.361Z,0
2022-08-31T02:09:53.341Z,0
2022-08-31T02:10:53.338Z,0
2022-08-31T02:11:53.316Z,0
2022-08-31T02:12:53.307Z,0
2022-08-31T02:13:53.297Z,0
2022-08-31T02:14:53.296Z,0
2022-08-31T02:15:53.292Z,0
2022-08-31T02:16:53.332Z,0
2022-08-31T02:17:53.252Z,0
2022-08-31T02:18:53.264Z,0
2022-08-31T02:19:53.235Z,0
2022-08-31T02:20:53.221Z,0
2022-08-31T02:21:53.218Z,0
2022-08-31T02:22:53.236Z,0
2022-08-31T02:23:53.194Z,0
2022-08-31T02:24:53.180Z,0
2022-08-31T02:25:53.188Z,0
2022-08-31T02:26:53.181Z,0
2022-08-31T02:27:53.175Z,0
2022-08-31T02:28:53.177Z,0
2022-08-31T02:29:53.132Z,0
2022-08-31T02:30:53.116Z,0
2022-08-31T02:31:53.104Z,0
2022-08-31T02:32:53.100Z,0
2022-08-31T02:33:53.086Z,0
2022-08-31T02:34:53.088Z,0
2022-08-31T02:35:53.068Z,0
2022-08-31T02:36:53.052Z,0
2022-08-31T02:37:53.041Z,0
2022-08-31T02:38:53.031Z,0
2022-08-31T02:39:53.020Z,0
2022-08-31T02:40:53.015Z,0
2022-08-31T02:41:53.003Z,0
2022-08-31T02:42:52.991Z,0
2022-08-31T02:43:52.984Z,0
2022-08-31T02:44:52.970Z,0
2022-08-31T02:45:52.957Z,0
2022-08-31T02:46:52.946Z,0
2022-08-31T02:47:52.930Z,0
2022-08-31T02:48:52.925Z,0
2022-08-31T02:49:52.912Z,0
2022-08-31T02:50:52.917Z,0
2022-08-31T02:51:52.901Z,0
2022-08-31T02:52:52.884Z,0
2022-08-31T02:53:52.883Z,0
2022-08-31T02:54:52.856Z,0
2022-08-31T02:55:52.853Z,0
2022-08-31T02:56:52.846Z,0
2022-08-31T02:57:52.827Z,0
2022-08-31T02:58:52.819Z,0
2022-08-31T02:59:52.810Z,0
2022-08-31T03:00:52.793Z,0
2022-08-31T03:01:52.792Z,0
2022-08-31T03:02:52.776Z,0
2022-08-31T03:03:52.765Z,0
2022-08-31T03:04:52.756Z,0
2022-08-31T03:05:52.748Z,0
2022-08-31T03:06:52.737Z,0
2022-08-31T03:07:52.739Z,0
2022-08-31T03:08:52.710Z,0
2022-08-31T03:09:52.701Z,0
2022-08-31T03:10:52.688Z,0
2022-08-31T03:11:52.675Z,0
2022-08-31T03:12:52.672Z,0
2022-08-31T03:13:52.685Z,0
2022-08-31T03:14:52.648Z,0
2022-08-31T03:15:52.638Z,0
2022-08-31T03:16:52.622Z,0
2022-08-31T03:17:52.614Z,0
2022-08-31T03:18:52.613Z,0
2022-08-31T03:19:52.589Z,0
2022-08-31T03:20:52.586Z,0
2022-08-31T03:21:52.578Z,0
2022-08-31T03:22:52.560Z,0
2022-08-31T03:23:52.568Z,0
2022-08-31T03:26:21.573Z,0
2022-08-31T03:27:21.557Z,0
2022-08-31T03:28:21.564Z,0
2022-08-31T03:29:21.567Z,0
2022-08-31T03:30:21.545Z,0
2022-08-31T03:31:21.520Z,0
2022-08-31T03:32:21.504Z,0
2022-08-31T03:33:21.497Z,0
2022-08-31T03:34:21.483Z,0
2022-08-31T03:35:21.477Z,0
2022-08-31T03:36:21.473Z,0
2022-08-31T03:37:21.453Z,0
2022-08-31T03:38:21.435Z,0
2022-08-31T03:39:21.446Z,0
2022-08-31T03:40:21.420Z,0
2022-08-31T03:41:21.413Z,0
2022-08-31T03:42:21.397Z,0
2022-08-31T03:43:21.389Z,0
2022-08-31T03:44:21.385Z,0
2022-08-31T03:45:21.364Z,0
2022-08-31T03:46:21.353Z,0
2022-08-31T03:47:21.344Z,0
2022-08-31T03:48:21.338Z,0
2022-08-31T03:49:21.320Z,0
2022-08-31T03:50:21.315Z,0
2022-08-31T03:51:21.319Z,0
2022-08-31T03:52:21.301Z,0
2022-08-31T03:53:21.282Z,0
2022-08-31T03:54:21.270Z,0
2022-08-31T03:55:21.259Z,0
2022-08-31T03:56:21.259Z,0
2022-08-31T03:57:21.239Z,0
2022-08-31T03:58:21.235Z,0
2022-08-31T03:59:21.213Z,0
2022-08-31T04:00:21.220Z,0
2022-08-31T04:01:21.190Z,0
2022-08-31T04:02:21.188Z,0
2022-08-31T04:03:21.177Z,0
2022-08-31T04:04:21.166Z,0
2022-08-31T04:05:21.152Z,0
2022-08-31T04:06:21.136Z,0
2022-08-31T04:07:21.130Z,0
2022-08-31T04:08:21.117Z,0
2022-08-31T04:09:21.108Z,0
2022-08-31T04:10:21.095Z,0
2022-08-31T04:11:21.105Z,0
2022-08-31T04:12:21.083Z,0
2022-08-31T04:13:21.065Z,0
2022-08-31T04:14:21.057Z,0
2022-08-31T04:15:21.050Z,0
2022-08-31T04:16:21.113Z,0
2022-08-31T04:17:21.032Z,0
2022-08-31T04:18:21.008Z,0
2022-08-31T04:19:21.005Z,0
2022-08-31T04:20:20.993Z,0
2022-08-31T04:21:20.980Z,0
2022-08-31T04:22:20.972Z,0
2022-08-31T04:23:20.980Z,0
2022-08-31T04:24:20.950Z,0
2022-08-31T04:25:20.944Z,0
2022-08-31T04:26:20.932Z,0
2022-08-31T04:27:20.968Z,0
2022-08-31T04:28:20.899Z,0
2022-08-31T04:29:20.891Z,0
2022-08-31T04:30:20.884Z,0
2022-08-31T04:31:20.873Z,0
2022-08-31T04:32:20.862Z,0
2022-08-31T04:33:20.858Z,0
2022-08-31T04:34:20.839Z,0
2022-08-31T04:35:20.825Z,0
2022-08-31T04:36:20.825Z,0
2022-08-31T04:37:20.835Z,0
2022-08-31T04:38:20.809Z,0
2022-08-31T04:39:20.789Z,0
2022-08-31T04:40:20.777Z,0
2022-08-31T04:41:20.774Z,0
2022-08-31T04:42:20.760Z,5.62
2022-08-31T04:43:20.775Z,5.62
2022-08-31T04:44:20.733Z,5.62
2022-08-31T04:45:20.723Z,5.62
2022-08-31T04:46:20.719Z,5.62
2022-08-31T04:47:20.715Z,5.62
2022-08-31T04:48:20.687Z,5.62
2022-08-31T04:49:20.681Z,5.62
2022-08-31T04:50:20.672Z,5.62
2022-08-31T04:51:20.667Z,5.62
2022-08-31T04:52:20.646Z,5.62
2022-08-31T04:53:20.648Z,5.62
2022-08-31T04:54:20.627Z,5.62
2022-08-31T04:55:20.618Z,11.25
2022-08-31T04:56:20.638Z,11.25
2022-08-31T04:57:20.599Z,11.25
2022-08-31T04:58:20.587Z,11.25
2022-08-31T04:59:20.588Z,11.25
2022-08-31T05:00:20.565Z,11.25
2022-08-31T05:01:20.552Z,11.25
2022-08-31T05:02:20.540Z,11.25
2022-08-31T05:03:20.530Z,11.25
2022-08-31T05:04:20.524Z,11.25
2022-08-31T05:05:20.531Z,11.25
2022-08-31T05:06:20.499Z,16.88
2022-08-31T05:07:20.489Z,16.88
2022-08-31T05:08:20.479Z,16.88
2022-08-31T05:09:20.462Z,16.88
2022-08-31T05:10:20.466Z,16.88
2022-08-31T05:11:20.462Z,16.88
2022-08-31T05:12:20.449Z,16.88
2022-08-31T05:13:20.424Z,16.88
2022-08-31T05:14:20.424Z,16.88
2022-08-31T05:15:20.413Z,16.88
2022-08-31T05:16:20.409Z,16.88
2022-08-31T05:17:20.401Z,16.88
2022-08-31T05:18:20.409Z,22.5
2022-08-31T05:19:20.371Z,22.5
2022-08-31T05:20:20.345Z,22.5
2022-08-31T05:21:20.369Z,22.5
2022-08-31T05:22:20.343Z,22.5
2022-08-31T05:23:20.330Z,22.5
2022-08-31T05:24:20.303Z,22.5
2022-08-31T05:25:20.299Z,22.5
2022-08-31T05:26:20.287Z,22.5
2022-08-31T05:27:20.272Z,28.12
2022-08-31T05:28:20.262Z,28.12
2022-08-31T05:29:20.255Z,28.12
2022-08-31T05:30:20.239Z,28.12
2022-08-31T05:31:20.237Z,28.12
2022-08-31T05:32:20.226Z,28.12
2022-08-31T05:33:20.213Z,28.12
2022-08-31T05:34:20.204Z,28.12
2022-08-31T05:35:20.246Z,28.12
2022-08-31T05:36:20.208Z,28.12
2022-08-31T05:37:20.194Z,28.12
2022-08-31T05:38:20.180Z,28.12
2022-08-31T05:39:20.175Z,33.75
2022-08-31T05:40:20.146Z,33.75
2022-08-31T05:41:20.158Z,33.75
2022-08-31T05:42:20.216Z,39.38
2022-08-31T05:43:20.099Z,39.38
2022-08-31T05:44:20.101Z,45
2022-08-31T05:45:20.085Z,45
2022-08-31T05:46:20.072Z,45
2022-08-31T05:47:20.094Z,50.62
2022-08-31T05:48:20.053Z,45
2022-08-31T05:49:20.036Z,45
2022-08-31T05:50:20.029Z,45
2022-08-31T05:51:20.013Z,50.62
2022-08-31T05:52:20.001Z,50.62
2022-08-31T05:53:19.999Z,50.62
2022-08-31T05:54:20.009Z,50.62
2022-08-31T05:55:19.992Z,50.62
2022-08-31T05:56:19.973Z,50.62
2022-08-31T05:57:19.953Z,56.25
2022-08-31T05:58:19.936Z,56.25
2022-08-31T05:59:19.947Z,56.25
2022-08-31T06:00:19.918Z,56.25
2022-08-31T06:01:19.918Z,61.88
2022-08-31T06:02:19.899Z,61.88
2022-08-31T06:03:19.886Z,61.88
2022-08-31T06:04:19.882Z,61.88
2022-08-31T06:05:19.864Z,61.88
2022-08-31T06:06:19.856Z,67.5
2022-08-31T06:07:19.862Z,67.5
2022-08-31T06:08:19.900Z,67.5
2022-08-31T06:09:19.823Z,67.5
2022-08-31T06:10:19.811Z,73.12
2022-08-31T06:11:19.801Z,78.75
2022-08-31T06:12:19.793Z,78.75
2022-08-31T06:13:19.778Z,84.38
2022-08-31T06:14:19.773Z,78.75
2022-08-31T06:15:19.762Z,84.38
2022-08-31T06:16:19.809Z,84.38
2022-08-31T06:17:19.803Z,84.38
2022-08-31T06:18:19.764Z,84.38
2022-08-31T06:19:19.772Z,84.38
2022-08-31T06:20:19.768Z,84.38
2022-08-31T06:21:19.692Z,84.38
2022-08-31T06:22:19.680Z,84.38
2022-08-31T06:23:19.674Z,84.38
2022-08-31T06:24:19.700Z,84.38
2022-08-31T06:25:19.655Z,90
2022-08-31T06:26:19.640Z,90
2022-08-31T06:27:19.630Z,90
2022-08-31T06:28:19.617Z,84.38
2022-08-31T06:29:19.611Z,84.38
2022-08-31T06:30:19.605Z,84.38
2022-08-31T06:31:19.584Z,90
2022-08-31T06:32:19.580Z,90
2022-08-31T06:33:19.574Z,90
2022-08-31T06:34:19.552Z,95.62
2022-08-31T06:35:19.549Z,101.25
2022-08-31T06:36:19.532Z,101.25
2022-08-31T06:37:19.518Z,106.88
2022-08-31T06:38:19.509Z,106.88
2022-08-31T06:39:19.520Z,106.88
2022-08-31T06:40:19.488Z,112.5
2022-08-31T06:41:19.488Z,112.5
2022-08-31T06:42:19.470Z,118.12
2022-08-31T06:43:19.455Z,123.75
2022-08-31T06:44:19.454Z,123.75
2022-08-31T06:45:19.514Z,123.75
2022-08-31T06:46:19.428Z,123.75
2022-08-31T06:47:19.424Z,123.75
2022-08-31T06:48:19.397Z,196.88
2022-08-31T06:49:19.416Z,123.75
2022-08-31T06:50:19.387Z,118.12
2022-08-31T06:51:19.398Z,101.25
2022-08-31T06:52:27.171Z,101.25
2022-08-31T06:53:19.351Z,101.25
2022-08-31T06:54:19.332Z,106.88
2022-08-31T06:55:19.327Z,112.5
2022-08-31T06:56:19.329Z,112.5
2022-08-31T06:57:19.308Z,118.12
2022-08-31T06:58:19.298Z,118.12
2022-08-31T06:59:19.290Z,118.12
2022-08-31T07:00:19.276Z,123.75
2022-08-31T07:01:19.269Z,106.88
2022-08-31T07:02:19.254Z,106.88
2022-08-31T07:03:19.256Z,106.88
2022-08-31T07:04:19.243Z,106.88
2022-08-31T07:05:19.220Z,112.5
2022-08-31T07:06:19.211Z,118.12
2022-08-31T07:07:19.208Z,118.12
2022-08-31T07:08:19.188Z,123.75
2022-08-31T07:09:19.176Z,129.38
2022-08-31T07:10:19.164Z,135
2022-08-31T07:11:19.148Z,135
2022-08-31T07:12:19.143Z,140.62
2022-08-31T07:13:19.142Z,146.25
2022-08-31T07:14:19.124Z,151.88
2022-08-31T07:15:19.146Z,168.75
2022-08-31T07:16:19.102Z,180
2022-08-31T07:17:19.089Z,180
2022-08-31T07:18:19.093Z,168.75
2022-08-31T07:19:19.079Z,185.62
2022-08-31T07:20:19.060Z,174.38
2022-08-31T07:21:19.060Z,185.62
2022-08-31T07:22:19.040Z,202.5
2022-08-31T07:23:19.027Z,185.62
2022-08-31T07:24:19.018Z,168.75
2022-08-31T07:25:19.004Z,157.5
2022-08-31T07:26:19.004Z,151.88
2022-08-31T07:27:18.983Z,146.25
2022-08-31T07:28:19.003Z,140.62
2022-08-31T07:29:18.973Z,146.25
2022-08-31T07:30:18.947Z,140.62
2022-08-31T07:31:18.939Z,140.62
2022-08-31T07:32:18.970Z,140.62
2022-08-31T07:33:18.922Z,140.62
2022-08-31T07:34:18.922Z,146.25
2022-08-31T07:35:18.903Z,146.25
2022-08-31T07:36:18.884Z,146.25
2022-08-31T07:37:18.885Z,135
2022-08-31T07:38:18.866Z,135
2022-08-31T07:39:18.851Z,135
2022-08-31T07:40:18.848Z,135
2022-08-31T07:41:18.868Z,135
2022-08-31T07:42:18.818Z,129.38
2022-08-31T07:43:18.814Z,123.75
2022-08-31T07:44:18.816Z,118.12
2022-08-31T07:45:18.787Z,118.12
2022-08-31T07:46:18.781Z,129.38
2022-08-31T07:47:18.770Z,135
2022-08-31T07:48:18.886Z,146.25
2022-08-31T07:50:38.137Z,157.5
2022-08-31T07:51:38.071Z,151.88
2022-08-31T07:52:38.183Z,140.62
2022-08-31T07:53:38.054Z,140.62
2022-08-31T07:54:38.061Z,140.62
2022-08-31T07:55:38.046Z,163.12
2022-08-31T07:56:38.024Z,163.12
2022-08-31T07:57:38.016Z,151.88
2022-08-31T07:58:38.032Z,146.25
2022-08-31T07:59:37.985Z,157.5
2022-08-31T08:00:37.987Z,168.75
2022-08-31T08:01:37.967Z,168.75
2022-08-31T08:02:38.022Z,185.62
2022-08-31T08:03:37.950Z,185.62
2022-08-31T08:04:37.943Z,185.62
2022-08-31T08:05:37.929Z,185.62
2022-08-31T08:06:37.922Z,174.38
2022-08-31T08:07:37.906Z,196.88
2022-08-31T08:08:37.902Z,202.5
2022-08-31T08:09:37.888Z,202.5
2022-08-31T08:10:37.882Z,202.5
2022-08-31T08:11:37.866Z,208.12
2022-08-31T08:12:38.642Z,219.38
2022-08-31T08:13:37.846Z,230.62
2022-08-31T08:14:37.853Z,264.38
2022-08-31T08:15:37.910Z,247.5
2022-08-31T08:16:37.816Z,337.5
2022-08-31T08:17:37.815Z,281.25
2022-08-31T08:18:37.805Z,405
2022-08-31T08:19:37.874Z,466.88
2022-08-31T08:20:37.780Z,433.12
2022-08-31T08:21:37.766Z,360
2022-08-31T08:22:37.758Z,388.12
2022-08-31T08:23:37.746Z,365.62
2022-08-31T08:24:37.729Z,298.12
2022-08-31T08:25:37.724Z,236.25
2022-08-31T08:26:37.714Z,315
2022-08-31T08:27:37.707Z,354.38
2022-08-31T08:28:37.685Z,360
2022-08-31T08:29:37.681Z,365.62
2022-08-31T08:30:37.668Z,371.25
2022-08-31T08:31:37.695Z,382.5
2022-08-31T08:32:37.652Z,393.75
2022-08-31T08:33:37.634Z,399.38
2022-08-31T08:34:37.627Z,405
2022-08-31T08:35:37.620Z,410.62
2022-08-31T08:36:37.672Z,438.75
2022-08-31T08:37:37.610Z,528.75
2022-08-31T08:38:37.587Z,675
2022-08-31T08:39:37.575Z,742.5
2022-08-31T08:40:37.566Z,753.75
2022-08-31T08:41:37.604Z,798.75
2022-08-31T08:42:37.544Z,815.62
2022-08-31T08:43:37.527Z,838.12
2022-08-31T08:44:37.529Z,877.5
2022-08-31T08:45:37.529Z,911.25
2022-08-31T08:46:37.512Z,871.88
2022-08-31T08:47:37.492Z,860.62
2022-08-31T08:48:37.484Z,928.12
2022-08-31T08:49:37.468Z,961.88
2022-08-31T08:50:37.473Z,1063.12
2022-08-31T08:51:37.463Z,1063.12
2022-08-31T08:52:37.441Z,1080
2022-08-31T08:53:37.433Z,1080
2022-08-31T08:54:37.468Z,1119.38
2022-08-31T08:55:37.401Z,1153.12
2022-08-31T08:56:37.393Z,1192.5
2022-08-31T08:57:37.418Z,1153.12
2022-08-31T08:58:38.183Z,1125
2022-08-31T08:59:37.385Z,900
2022-08-31T09:00:37.355Z,877.5
2022-08-31T09:01:37.337Z,1085.62
2022-08-31T09:02:37.327Z,1096.88
2022-08-31T09:03:37.335Z,1051.88
2022-08-31T09:04:37.310Z,416.25
2022-08-31T09:05:37.353Z,720
2022-08-31T09:06:37.293Z,556.88
2022-08-31T09:07:37.278Z,776.25
2022-08-31T09:08:37.294Z,315
2022-08-31T09:09:37.261Z,360
2022-08-31T09:10:37.340Z,331.88
2022-08-31T09:11:38.238Z,450
2022-08-31T09:12:37.242Z,579.38
2022-08-31T09:13:37.242Z,900
2022-08-31T09:14:37.213Z,1153.12
2022-08-31T09:15:37.231Z,1001.25
2022-08-31T09:16:37.182Z,1018.12
2022-08-31T09:17:37.178Z,495
2022-08-31T09:18:38.083Z,303.75
2022-08-31T09:19:37.155Z,298.12
2022-08-31T09:20:37.150Z,652.5
2022-08-31T09:21:37.211Z,343.12
2022-08-31T09:22:37.144Z,320.62
2022-08-31T09:23:37.115Z,348.75
2022-08-31T09:24:37.433Z,444.38
2022-08-31T09:25:37.100Z,596.25
2022-08-31T09:26:37.090Z,388.12
2022-08-31T09:27:37.097Z,348.75
2022-08-31T09:28:37.062Z,320.62
2022-08-31T09:29:37.051Z,309.38
2022-08-31T09:30:37.078Z,292.5
2022-08-31T09:31:37.160Z,286.88
2022-08-31T09:32:37.063Z,292.5
2022-08-31T09:33:37.044Z,286.88
2022-08-31T09:34:37.001Z,292.5
2022-08-31T09:35:36.992Z,292.5
2022-08-31T09:36:36.990Z,292.5
2022-08-31T09:37:36.977Z,292.5
2022-08-31T09:38:36.965Z,286.88
2022-08-31T09:39:36.953Z,292.5
2022-08-31T09:40:36.941Z,281.25
2022-08-31T09:41:37.069Z,286.88
2022-08-31T09:42:37.037Z,286.88
2022-08-31T09:43:36.907Z,286.88
2022-08-31T09:44:36.899Z,292.5
2022-08-31T09:45:36.892Z,292.5
2022-08-31T09:46:36.891Z,286.88
2022-08-31T09:47:36.860Z,298.12
2022-08-31T09:48:36.853Z,309.38
2022-08-31T09:49:36.846Z,292.5
2022-08-31T09:50:36.847Z,315
2022-08-31T09:51:36.825Z,309.38
2022-08-31T09:52:36.827Z,320.62
2022-08-31T09:53:36.796Z,303.75
2022-08-31T09:54:36.795Z,343.12
2022-08-31T09:55:36.796Z,360
2022-08-31T09:56:36.803Z,315
2022-08-31T09:57:36.795Z,365.62
2022-08-31T09:58:36.751Z,281.25
2022-08-31T09:59:36.746Z,286.88
2022-08-31T10:00:36.764Z,236.25
2022-08-31T10:01:36.753Z,219.38
2022-08-31T10:02:36.724Z,225
2022-08-31T10:03:36.706Z,225
2022-08-31T10:04:36.704Z,219.38
2022-08-31T10:05:36.688Z,213.75
2022-08-31T10:06:36.676Z,630
2022-08-31T10:07:36.710Z,646.88
2022-08-31T10:08:36.666Z,1158.75
2022-08-31T10:09:36.633Z,337.5
2022-08-31T10:10:36.653Z,264.38
2022-08-31T10:11:36.610Z,264.38
2022-08-31T10:12:36.624Z,343.12
2022-08-31T10:13:36.599Z,669.38
2022-08-31T10:14:36.587Z,770.62
2022-08-31T10:15:36.577Z,298.12
2022-08-31T10:16:36.586Z,399.38
2022-08-31T10:17:36.575Z,241.88
2022-08-31T10:18:36.558Z,894.38
2022-08-31T10:19:36.547Z,1108.12
2022-08-31T10:20:36.532Z,1164.38
2022-08-31T10:21:36.510Z,1220.62
2022-08-31T10:22:36.491Z,1192.5
2022-08-31T10:23:36.499Z,1186.88
2022-08-31T10:24:36.477Z,1226.25
2022-08-31T10:25:36.469Z,1293.75
2022-08-31T10:26:36.458Z,1299.38
2022-08-31T10:27:36.555Z,1265.62
2022-08-31T10:28:36.434Z,1186.88
2022-08-31T10:29:36.444Z,1158.75
2022-08-31T10:30:36.418Z,1147.5
2022-08-31T10:31:36.423Z,1192.5
2022-08-31T10:32:36.409Z,1226.25
2022-08-31T10:33:36.386Z,1198.12
2022-08-31T10:34:36.386Z,945
2022-08-31T10:35:36.364Z,511.88
2022-08-31T10:36:36.354Z,438.75
2022-08-31T10:37:36.348Z,489.38
2022-08-31T10:38:36.361Z,540
2022-08-31T10:39:37.332Z,472.5
2022-08-31T10:40:36.308Z,545.62
2022-08-31T10:41:36.351Z,466.88
2022-08-31T10:42:36.295Z,416.25
2022-08-31T10:43:36.298Z,393.75
2022-08-31T10:44:36.285Z,371.25
2022-08-31T10:45:36.270Z,354.38
2022-08-31T10:46:36.272Z,343.12
2022-08-31T10:47:36.242Z,748.12
2022-08-31T10:48:36.238Z,1125
2022-08-31T10:49:36.215Z,1260
2022-08-31T10:50:36.214Z,1411.88
2022-08-31T10:51:36.204Z,1597.5
2022-08-31T10:52:36.184Z,1603.12
2022-08-31T10:53:36.261Z,641.25
2022-08-31T10:54:36.193Z,1490.62
2022-08-31T10:55:36.160Z,1406.25
2022-08-31T10:56:36.160Z,1591.88
2022-08-31T10:57:36.164Z,1513.12
2022-08-31T10:58:36.131Z,1591.88
2022-08-31T10:59:36.138Z,1501.88
2022-08-31T11:00:36.111Z,1659.38
2022-08-31T11:01:36.104Z,1665
2022-08-31T11:02:36.093Z,1659.38
2022-08-31T11:03:36.100Z,1670.62
2022-08-31T11:04:36.087Z,1704.38
2022-08-31T11:05:36.056Z,1715.62
2022-08-31T11:06:36.042Z,1743.75
2022-08-31T11:07:36.051Z,1726.88
2022-08-31T11:08:36.022Z,1687.5
2022-08-31T11:09:36.026Z,1642.5
2022-08-31T11:10:36.018Z,1591.88
2022-08-31T11:11:35.995Z,1535.62
2022-08-31T11:12:36.013Z,1659.38
2022-08-31T11:13:35.980Z,1738.12
2022-08-31T11:14:36.067Z,1755
2022-08-31T11:15:35.960Z,1822.5
2022-08-31T11:16:35.941Z,1822.5
2022-08-31T11:17:35.941Z,1738.12
2022-08-31T11:18:35.937Z,1670.62
2022-08-31T11:19:35.923Z,1755
2022-08-31T11:20:35.935Z,1805.62
2022-08-31T11:21:35.907Z,1873.12
2022-08-31T11:22:35.888Z,1884.38
2022-08-31T11:23:35.881Z,1794.38
2022-08-31T11:24:35.910Z,1800
2022-08-31T11:25:35.873Z,1732.5
2022-08-31T11:26:36.663Z,1681.88
2022-08-31T11:27:35.856Z,1693.12
2022-08-31T11:28:35.835Z,1749.38
2022-08-31T11:29:35.830Z,1766.25
2022-08-31T11:30:35.839Z,1766.25
2022-08-31T11:31:36.801Z,1743.75
2022-08-31T11:32:35.979Z,1766.25
2022-08-31T11:33:35.778Z,1783.12
2022-08-31T11:34:35.770Z,1777.5
2022-08-31T11:35:35.776Z,1726.88
2022-08-31T11:36:35.783Z,1704.38
2022-08-31T11:37:35.761Z,1766.25
2022-08-31T11:38:35.748Z,1816.88
2022-08-31T11:39:35.723Z,1845
2022-08-31T11:40:35.716Z,1828.12
2022-08-31T11:41:35.750Z,1805.62
2022-08-31T11:42:35.727Z,1822.5
2022-08-31T11:43:35.687Z,1845
2022-08-31T11:44:35.680Z,1811.25
2022-08-31T11:45:36.606Z,1417.5
2022-08-31T11:46:35.664Z,1783.12
2022-08-31T11:47:35.695Z,1867.5
2022-08-31T11:48:35.654Z,1867.5
2022-08-31T11:49:35.627Z,1861.88
2022-08-31T11:50:36.220Z,1816.88
2022-08-31T11:51:35.606Z,1794.38
2022-08-31T11:52:35.592Z,1800
2022-08-31T11:53:35.628Z,1822.5
2022-08-31T11:54:35.573Z,1372.5
2022-08-31T11:55:35.576Z,1485
2022-08-31T11:56:35.574Z,528.75
2022-08-31T11:57:35.586Z,1693.12
2022-08-31T11:58:35.544Z,1845
2022-08-31T11:59:35.535Z,1856.25
2022-08-31T12:00:35.522Z,1822.5
2022-08-31T12:01:35.505Z,1833.75
2022-08-31T12:02:35.500Z,1822.5
2022-08-31T12:03:35.543Z,1805.62
2022-08-31T12:04:35.556Z,1777.5
2022-08-31T12:05:35.498Z,1755
2022-08-31T12:06:35.461Z,1805.62
2022-08-31T12:07:35.452Z,1861.88
2022-08-31T12:08:35.445Z,1839.38
2022-08-31T12:09:35.429Z,1833.75
2022-08-31T12:10:35.424Z,1890
2022-08-31T12:11:35.602Z,1867.5
2022-08-31T12:12:36.398Z,1884.38
2022-08-31T12:13:35.397Z,669.38
2022-08-31T12:14:35.394Z,258.75
2022-08-31T12:15:35.390Z,247.5
2022-08-31T12:16:35.377Z,1462.5
2022-08-31T12:17:35.361Z,596.25
2022-08-31T12:18:35.344Z,241.88
2022-08-31T12:19:35.332Z,202.5
2022-08-31T12:20:35.324Z,185.62
2022-08-31T12:21:35.326Z,168.75
2022-08-31T12:22:35.325Z,168.75
2022-08-31T12:23:35.351Z,168.75
2022-08-31T12:24:35.306Z,180
2022-08-31T12:25:35.272Z,191.25
2022-08-31T12:26:35.258Z,219.38
2022-08-31T12:27:35.276Z,258.75
2022-08-31T12:28:35.285Z,365.62
2022-08-31T12:29:35.392Z,438.75
2022-08-31T12:30:35.221Z,264.38
2022-08-31T12:31:35.220Z,270
2022-08-31T12:32:35.202Z,337.5
2022-08-31T12:33:35.203Z,1395
2022-08-31T12:34:35.198Z,1681.88
2022-08-31T12:35:35.187Z,1535.62
2022-08-31T12:36:35.163Z,1659.38
2022-08-31T12:37:35.173Z,1659.38
2022-08-31T12:38:35.138Z,1614.38
2022-08-31T12:39:35.162Z,1586.25
2022-08-31T12:40:35.135Z,1530
2022-08-31T12:41:35.138Z,1321.88
2022-08-31T12:42:35.132Z,1063.12
2022-08-31T12:43:35.131Z,877.5
2022-08-31T12:44:35.083Z,1085.62
2022-08-31T12:45:35.085Z,1276.88
2022-08-31T12:46:35.100Z,725.62
2022-08-31T12:47:35.051Z,686.25
2022-08-31T12:48:35.055Z,275.62
2022-08-31T12:49:35.034Z,281.25
2022-08-31T12:50:35.024Z,1203.75
2022-08-31T12:51:35.025Z,1237.5
2022-08-31T12:52:35.009Z,1299.38
2022-08-31T12:53:35.001Z,1361.25
2022-08-31T12:54:34.981Z,1411.88
2022-08-31T12:55:34.972Z,1400.62
2022-08-31T12:56:34.964Z,1164.38
2022-08-31T12:57:34.963Z,1395
2022-08-31T12:58:34.945Z,1327.5
2022-08-31T12:59:34.961Z,427.5
2022-08-31T13:00:34.935Z,298.12
2022-08-31T13:01:34.914Z,270
2022-08-31T13:02:34.910Z,270
2022-08-31T13:03:34.912Z,309.38
2022-08-31T13:04:34.926Z,450
2022-08-31T13:05:34.885Z,1518.75
2022-08-31T13:06:34.858Z,1372.5
2022-08-31T13:07:34.870Z,1321.88
2022-08-31T13:08:34.876Z,1361.25
2022-08-31T13:09:34.832Z,1378.12
2022-08-31T13:10:34.824Z,1451.25
2022-08-31T13:11:34.872Z,1462.5
2022-08-31T13:12:34.807Z,1451.25
2022-08-31T13:13:34.811Z,1411.88
2022-08-31T13:14:34.782Z,1389.38
2022-08-31T13:15:34.778Z,832.5
2022-08-31T13:16:34.762Z,956.25
2022-08-31T13:17:34.752Z,1035
2022-08-31T13:18:34.759Z,1265.62
2022-08-31T13:19:34.742Z,1068.75
2022-08-31T13:20:34.720Z,1108.12
2022-08-31T13:21:34.719Z,967.5
2022-08-31T13:22:34.721Z,1012.5
2022-08-31T13:23:34.712Z,573.75
2022-08-31T13:24:34.702Z,258.75